sensor_id;sensor_type;location;lat;lon;timestamp;P1;durP1;ratioP1;P2;durP2;ratioP2
16266;SDS011;8241;48.786;9.250;2023-03-13T00:51:23;1.73;;;1.63;;
16266;SDS011;8241;48.786;9.250;2023-03-13T02:13:10;2.30;;;1.70;;
16266;SDS011;8241;48.786;9.250;2023-03-13T02:15:39;1.00;;;1.00;;
16266;SDS011;8241;48.786;9.250;2023-03-13T02:25:37;1.75;;;1.65;;
16266;SDS011;8241;48.786;9.250;2023-03-13T02:28:10;3.43;;;2.17;;
16266;SDS011;8241;48.786;9.250;2023-03-13T02:30:41;1.63;;;1.52;;
16266;SDS011;8241;48.786;9.250;2023-03-13T02:38:09;1.10;;;1.10;;
16266;SDS011;8241;48.786;9.250;2023-03-13T02:40:41;1.30;;;1.30;;
16266;SDS011;8241;48.786;9.250;2023-03-13T02:48:09;2.60;;;2.13;;
16266;SDS011;8241;48.786;9.250;2023-03-13T03:00:34;1.20;;;1.20;;
16266;SDS011;8241;48.786;9.250;2023-03-13T03:22:41;3.60;;;1.38;;
16266;SDS011;8241;48.786;9.250;2023-03-13T03:32:35;1.90;;;1.63;;
16266;SDS011;8241;48.786;9.250;2023-03-13T03:37:29;1.90;;;1.80;;
16266;SDS011;8241;48.786;9.250;2023-03-13T03:42:28;0.90;;;0.90;;
16266;SDS011;8241;48.786;9.250;2023-03-13T03:44:55;1.10;;;1.10;;
16266;SDS011;8241;48.786;9.250;2023-03-13T03:47:22;1.15;;;1.15;;
16266;SDS011;8241;48.786;9.250;2023-03-13T03:49:50;1.20;;;1.20;;
16266;SDS011;8241;48.786;9.250;2023-03-13T03:52:18;1.00;;;1.00;;
16266;SDS011;8241;48.786;9.250;2023-03-13T03:54:47;1.40;;;1.40;;
16266;SDS011;8241;48.786;9.250;2023-03-13T03:57:15;1.73;;;1.23;;
16266;SDS011;8241;48.786;9.250;2023-03-13T03:59:44;1.20;;;1.20;;
16266;SDS011;8241;48.786;9.250;2023-03-13T04:02:10;0.90;;;0.90;;
16266;SDS011;8241;48.786;9.250;2023-03-13T04:04:39;1.40;;;1.30;;
16266;SDS011;8241;48.786;9.250;2023-03-13T04:07:28;1.10;;;1.10;;
16266;SDS011;8241;48.786;9.250;2023-03-13T04:10:01;1.20;;;1.20;;
16266;SDS011;8241;48.786;9.250;2023-03-13T04:12:34;1.10;;;1.10;;
16266;SDS011;8241;48.786;9.250;2023-03-13T04:15:02;0.90;;;0.90;;
16266;SDS011;8241;48.786;9.250;2023-03-13T04:17:29;1.20;;;1.20;;
16266;SDS011;8241;48.786;9.250;2023-03-13T04:19:56;1.20;;;1.20;;
16266;SDS011;8241;48.786;9.250;2023-03-13T04:22:23;0.98;;;0.98;;
16266;SDS011;8241;48.786;9.250;2023-03-13T04:24:56;1.00;;;1.00;;
16266;SDS011;8241;48.786;9.250;2023-03-13T04:49:08;1.80;;;1.70;;
16266;SDS011;8241;48.786;9.250;2023-03-13T04:57:25;1.27;;;1.23;;
16266;SDS011;8241;48.786;9.250;2023-03-13T05:39:01;1.00;;;1.00;;
16266;SDS011;8241;48.786;9.250;2023-03-13T05:41:46;0.90;;;0.90;;
16266;SDS011;8241;48.786;9.250;2023-03-13T05:46:53;1.10;;;1.10;;
16266;SDS011;8241;48.786;9.250;2023-03-13T05:55:34;1.00;;;1.00;;
16266;SDS011;8241;48.786;9.250;2023-03-13T06:01:06;0.93;;;0.93;;
16266;SDS011;8241;48.786;9.250;2023-03-13T06:03:49;1.00;;;1.00;;
16266;SDS011;8241;48.786;9.250;2023-03-13T06:06:17;1.00;;;1.00;;
16266;SDS011;8241;48.786;9.250;2023-03-13T06:08:48;1.13;;;1.13;;
16266;SDS011;8241;48.786;9.250;2023-03-13T06:11:20;1.80;;;1.70;;
16266;SDS011;8241;48.786;9.250;2023-03-13T06:13:49;1.00;;;1.00;;
16266;SDS011;8241;48.786;9.250;2023-03-13T06:16:25;1.00;;;1.00;;
16266;SDS011;8241;48.786;9.250;2023-03-13T06:18:57;1.00;;;1.00;;
16266;SDS011;8241;48.786;9.250;2023-03-13T06:21:24;1.00;;;1.00;;
16266;SDS011;8241;48.786;9.250;2023-03-13T06:23:51;1.30;;;1.30;;
16266;SDS011;8241;48.786;9.250;2023-03-13T06:26:19;0.90;;;0.90;;
16266;SDS011;8241;48.786;9.250;2023-03-13T06:28:48;0.98;;;0.98;;
16266;SDS011;8241;48.786;9.250;2023-03-13T06:31:15;1.00;;;1.00;;
16266;SDS011;8241;48.786;9.250;2023-03-13T06:33:42;1.00;;;1.00;;
16266;SDS011;8241;48.786;9.250;2023-03-13T06:36:10;1.00;;;1.00;;
16266;SDS011;8241;48.786;9.250;2023-03-13T06:38:37;1.00;;;1.00;;
16266;SDS011;8241;48.786;9.250;2023-03-13T06:41:05;1.10;;;1.10;;
16266;SDS011;8241;48.786;9.250;2023-03-13T06:43:32;1.10;;;1.10;;
16266;SDS011;8241;48.786;9.250;2023-03-13T06:46:01;0.95;;;0.95;;
16266;SDS011;8241;48.786;9.250;2023-03-13T06:48:30;1.00;;;1.00;;
16266;SDS011;8241;48.786;9.250;2023-03-13T06:50:57;1.10;;;1.10;;
16266;SDS011;8241;48.786;9.250;2023-03-13T06:53:25;1.00;;;1.00;;
16266;SDS011;8241;48.786;9.250;2023-03-13T06:55:53;1.00;;;1.00;;
16266;SDS011;8241;48.786;9.250;2023-03-13T06:58:20;1.10;;;1.10;;
16266;SDS011;8241;48.786;9.250;2023-03-13T07:00:47;0.90;;;0.90;;
16266;SDS011;8241;48.786;9.250;2023-03-13T07:03:13;1.00;;;1.00;;
16266;SDS011;8241;48.786;9.250;2023-03-13T07:05:40;0.90;;;0.90;;
16266;SDS011;8241;48.786;9.250;2023-03-13T07:08:07;0.98;;;0.98;;
16266;SDS011;8241;48.786;9.250;2023-03-13T07:10:36;1.00;;;1.00;;
16266;SDS011;8241;48.786;9.250;2023-03-13T07:15:30;0.90;;;0.90;;
16266;SDS011;8241;48.786;9.250;2023-03-13T07:17:57;1.00;;;1.00;;
16266;SDS011;8241;48.786;9.250;2023-03-13T07:20:24;0.90;;;0.90;;
16266;SDS011;8241;48.786;9.250;2023-03-13T07:25:18;1.00;;;1.00;;
16266;SDS011;8241;48.786;9.250;2023-03-13T07:40:05;1.10;;;1.10;;
16266;SDS011;8241;48.786;9.250;2023-03-13T07:42:38;1.05;;;1.05;;
16266;SDS011;8241;48.786;9.250;2023-03-13T07:45:07;1.00;;;1.00;;
16266;SDS011;8241;48.786;9.250;2023-03-13T07:47:35;0.90;;;0.90;;
16266;SDS011;8241;48.786;9.250;2023-03-13T07:50:02;0.90;;;0.90;;
16266;SDS011;8241;48.786;9.250;2023-03-13T07:52:30;1.02;;;1.02;;
16266;SDS011;8241;48.786;9.250;2023-03-13T07:57:26;0.90;;;0.90;;
16266;SDS011;8241;48.786;9.250;2023-03-13T08:17:04;0.90;;;0.90;;
16266;SDS011;8241;48.786;9.250;2023-03-13T08:26:56;1.08;;;1.08;;
16266;SDS011;8241;48.786;9.250;2023-03-13T08:29:23;0.90;;;0.90;;
16266;SDS011;8241;48.786;9.250;2023-03-13T08:31:51;0.90;;;0.90;;
16266;SDS011;8241;48.786;9.250;2023-03-13T08:34:18;1.10;;;1.10;;
16266;SDS011;8241;48.786;9.250;2023-03-13T08:36:49;1.00;;;1.00;;
16266;SDS011;8241;48.786;9.250;2023-03-13T08:39:18;0.90;;;0.90;;
16266;SDS011;8241;48.786;9.250;2023-03-13T08:46:40;1.08;;;1.08;;
16266;SDS011;8241;48.786;9.250;2023-03-13T08:49:08;1.10;;;1.10;;
16266;SDS011;8241;48.786;9.250;2023-03-13T08:51:37;0.80;;;0.80;;
16266;SDS011;8241;48.786;9.250;2023-03-13T08:54:05;1.00;;;1.00;;
16266;SDS011;8241;48.786;9.250;2023-03-13T08:59:03;0.80;;;0.80;;
16266;SDS011;8241;48.786;9.250;2023-03-13T09:06:36;1.10;;;1.10;;
16266;SDS011;8241;48.786;9.250;2023-03-13T09:09:04;1.10;;;1.10;;
16266;SDS011;8241;48.786;9.250;2023-03-13T09:11:34;1.00;;;1.00;;
16266;SDS011;8241;48.786;9.250;2023-03-13T09:14:03;1.20;;;1.20;;
16266;SDS011;8241;48.786;9.250;2023-03-13T09:16:32;2.30;;;1.70;;
16266;SDS011;8241;48.786;9.250;2023-03-13T09:19:00;1.40;;;1.20;;
16266;SDS011;8241;48.786;9.250;2023-03-13T09:53:53;1.00;;;1.00;;
16266;SDS011;8241;48.786;9.250;2023-03-13T10:03:57;1.20;;;1.20;;
16266;SDS011;8241;48.786;9.250;2023-03-13T10:06:32;1.30;;;1.30;;
16266;SDS011;8241;48.786;9.250;2023-03-13T10:21:43;2.90;;;2.10;;
16266;SDS011;8241;48.786;9.250;2023-03-13T10:24:13;0.90;;;0.90;;
16266;SDS011;8241;48.786;9.250;2023-03-13T10:26:46;1.00;;;1.00;;
16266;SDS011;8241;48.786;9.250;2023-03-13T10:29:19;1.38;;;1.35;;
16266;SDS011;8241;48.786;9.250;2023-03-13T10:34:21;1.60;;;1.00;;
16266;SDS011;8241;48.786;9.250;2023-03-13T10:36:49;0.90;;;0.90;;
16266;SDS011;8241;48.786;9.250;2023-03-13T10:39:23;1.20;;;1.20;;
16266;SDS011;8241;48.786;9.250;2023-03-13T10:41:55;1.10;;;1.10;;
16266;SDS011;8241;48.786;9.250;2023-03-13T10:44:31;1.02;;;1.02;;
16266;SDS011;8241;48.786;9.250;2023-03-13T10:46:59;2.70;;;1.30;;
16266;SDS011;8241;48.786;9.250;2023-03-13T10:49:28;1.10;;;1.10;;
16266;SDS011;8241;48.786;9.250;2023-03-13T10:59:48;1.10;;;1.10;;
16266;SDS011;8241;48.786;9.250;2023-03-13T11:02:21;1.10;;;1.10;;
16266;SDS011;8241;48.786;9.250;2023-03-13T11:04:50;1.25;;;1.17;;
16266;SDS011;8241;48.786;9.250;2023-03-13T11:07:25;1.10;;;1.10;;
16266;SDS011;8241;48.786;9.250;2023-03-13T11:09:58;1.00;;;1.00;;
16266;SDS011;8241;48.786;9.250;2023-03-13T11:12:33;1.00;;;1.00;;
16266;SDS011;8241;48.786;9.250;2023-03-13T11:15:05;1.00;;;1.00;;
16266;SDS011;8241;48.786;9.250;2023-03-13T11:17:40;0.80;;;0.80;;
16266;SDS011;8241;48.786;9.250;2023-03-13T11:20:11;0.90;;;0.90;;
16266;SDS011;8241;48.786;9.250;2023-03-13T11:22:47;1.00;;;1.00;;
16266;SDS011;8241;48.786;9.250;2023-03-13T11:27:55;1.00;;;1.00;;
16266;SDS011;8241;48.786;9.250;2023-03-13T11:30:39;10.10;;;1.70;;
16266;SDS011;8241;48.786;9.250;2023-03-13T11:33:22;1.20;;;1.20;;
16266;SDS011;8241;48.786;9.250;2023-03-13T11:36:01;1.20;;;1.20;;
16266;SDS011;8241;48.786;9.250;2023-03-13T11:38:37;1.10;;;1.10;;
16266;SDS011;8241;48.786;9.250;2023-03-13T11:46:23;0.90;;;0.90;;
16266;SDS011;8241;48.786;9.250;2023-03-13T11:51:49;1.02;;;0.95;;
16266;SDS011;8241;48.786;9.250;2023-03-13T11:54:29;1.33;;;1.33;;
16266;SDS011;8241;48.786;9.250;2023-03-13T11:57:11;1.20;;;1.20;;
16266;SDS011;8241;48.786;9.250;2023-03-13T11:59:42;1.90;;;1.80;;
16266;SDS011;8241;48.786;9.250;2023-03-13T12:02:20;1.10;;;1.10;;
16266;SDS011;8241;48.786;9.250;2023-03-13T12:04:54;1.05;;;1.05;;
16266;SDS011;8241;48.786;9.250;2023-03-13T12:07:27;2.60;;;1.20;;
16266;SDS011;8241;48.786;9.250;2023-03-13T12:09:58;1.05;;;1.05;;
16266;SDS011;8241;48.786;9.250;2023-03-13T14:16:29;1.10;;;1.10;;
16266;SDS011;8241;48.786;9.250;2023-03-13T14:21:23;1.10;;;1.10;;
16266;SDS011;8241;48.786;9.250;2023-03-13T14:23:52;1.17;;;1.17;;
16266;SDS011;8241;48.786;9.250;2023-03-13T14:26:20;1.30;;;1.30;;
16266;SDS011;8241;48.786;9.250;2023-03-13T14:28:50;1.30;;;1.30;;
16266;SDS011;8241;48.786;9.250;2023-03-13T14:43:53;1.17;;;1.17;;
16266;SDS011;8241;48.786;9.250;2023-03-13T14:53:54;1.20;;;1.20;;
16266;SDS011;8241;48.786;9.250;2023-03-13T14:56:30;1.30;;;1.30;;
16266;SDS011;8241;48.786;9.250;2023-03-13T15:01:32;1.20;;;1.20;;
16266;SDS011;8241;48.786;9.250;2023-03-13T15:03:59;3.05;;;1.50;;
16266;SDS011;8241;48.786;9.250;2023-03-13T15:06:26;1.33;;;1.33;;
16266;SDS011;8241;48.786;9.250;2023-03-13T15:11:55;1.20;;;1.20;;
16266;SDS011;8241;48.786;9.250;2023-03-13T15:14:31;1.30;;;1.30;;
16266;SDS011;8241;48.786;9.250;2023-03-13T15:17:07;1.20;;;1.20;;
16266;SDS011;8241;48.786;9.250;2023-03-13T15:19:38;1.42;;;1.42;;
16266;SDS011;8241;48.786;9.250;2023-03-13T15:22:08;1.50;;;1.50;;
16266;SDS011;8241;48.786;9.250;2023-03-13T15:24:37;1.10;;;1.10;;
16266;SDS011;8241;48.786;9.250;2023-03-13T15:34:34;1.20;;;1.20;;
16266;SDS011;8241;48.786;9.250;2023-03-13T15:37:01;1.00;;;1.00;;
16266;SDS011;8241;48.786;9.250;2023-03-13T15:39:28;1.30;;;1.30;;
16266;SDS011;8241;48.786;9.250;2023-03-13T15:41:55;1.40;;;1.40;;
16266;SDS011;8241;48.786;9.250;2023-03-13T15:44:24;1.35;;;1.35;;
16266;SDS011;8241;48.786;9.250;2023-03-13T15:46:50;1.30;;;1.30;;
16266;SDS011;8241;48.786;9.250;2023-03-13T15:49:17;1.00;;;1.00;;
16266;SDS011;8241;48.786;9.250;2023-03-13T15:51:44;1.30;;;1.30;;
16266;SDS011;8241;48.786;9.250;2023-03-13T15:54:11;1.35;;;1.35;;
16266;SDS011;8241;48.786;9.250;2023-03-13T15:56:38;1.10;;;1.10;;
16266;SDS011;8241;48.786;9.250;2023-03-13T15:59:08;1.10;;;1.10;;
16266;SDS011;8241;48.786;9.250;2023-03-13T16:04:05;1.20;;;1.20;;
16266;SDS011;8241;48.786;9.250;2023-03-13T16:06:32;1.30;;;1.30;;
16266;SDS011;8241;48.786;9.250;2023-03-13T16:11:27;1.10;;;1.10;;
16266;SDS011;8241;48.786;9.250;2023-03-13T16:13:55;1.20;;;1.20;;
16266;SDS011;8241;48.786;9.250;2023-03-13T16:16:23;1.30;;;1.30;;
16266;SDS011;8241;48.786;9.250;2023-03-13T16:18:54;1.00;;;1.00;;
16266;SDS011;8241;48.786;9.250;2023-03-13T16:21:22;1.30;;;1.30;;
16266;SDS011;8241;48.786;9.250;2023-03-13T16:23:51;1.20;;;1.20;;
16266;SDS011;8241;48.786;9.250;2023-03-13T16:26:19;1.10;;;1.10;;
16266;SDS011;8241;48.786;9.250;2023-03-13T16:28:47;1.50;;;1.50;;
16266;SDS011;8241;48.786;9.250;2023-03-13T16:31:16;1.20;;;1.20;;
16266;SDS011;8241;48.786;9.250;2023-03-13T16:33:44;1.30;;;1.30;;
16266;SDS011;8241;48.786;9.250;2023-03-13T16:36:14;1.80;;;1.70;;
16266;SDS011;8241;48.786;9.250;2023-03-13T16:38:42;1.60;;;1.60;;
16266;SDS011;8241;48.786;9.250;2023-03-13T16:41:11;2.10;;;1.55;;
16266;SDS011;8241;48.786;9.250;2023-03-13T16:43:39;1.50;;;1.50;;
16266;SDS011;8241;48.786;9.250;2023-03-13T16:46:11;1.60;;;1.60;;
16266;SDS011;8241;48.786;9.250;2023-03-13T16:48:39;1.92;;;1.83;;
16266;SDS011;8241;48.786;9.250;2023-03-13T16:51:08;1.30;;;1.30;;
16266;SDS011;8241;48.786;9.250;2023-03-13T16:53:44;1.20;;;1.20;;
16266;SDS011;8241;48.786;9.250;2023-03-13T16:56:14;1.10;;;1.10;;
16266;SDS011;8241;48.786;9.250;2023-03-13T16:58:45;1.40;;;1.40;;
16266;SDS011;8241;48.786;9.250;2023-03-13T17:01:12;1.10;;;1.10;;
16266;SDS011;8241;48.786;9.250;2023-03-13T17:03:39;1.30;;;1.30;;
16266;SDS011;8241;48.786;9.250;2023-03-13T17:06:09;1.27;;;1.27;;
16266;SDS011;8241;48.786;9.250;2023-03-13T17:08:41;1.40;;;1.40;;
16266;SDS011;8241;48.786;9.250;2023-03-13T17:11:13;1.30;;;1.30;;
16266;SDS011;8241;48.786;9.250;2023-03-13T17:13:42;1.20;;;1.20;;
16266;SDS011;8241;48.786;9.250;2023-03-13T17:16:10;1.20;;;1.20;;
16266;SDS011;8241;48.786;9.250;2023-03-13T17:18:40;1.80;;;1.70;;
16266;SDS011;8241;48.786;9.250;2023-03-13T17:21:10;1.20;;;1.20;;
16266;SDS011;8241;48.786;9.250;2023-03-13T17:23:38;1.50;;;1.30;;
16266;SDS011;8241;48.786;9.250;2023-03-13T17:26:12;1.25;;;1.25;;
16266;SDS011;8241;48.786;9.250;2023-03-13T17:28:41;1.10;;;1.10;;
16266;SDS011;8241;48.786;9.250;2023-03-13T17:31:08;1.20;;;1.20;;
16266;SDS011;8241;48.786;9.250;2023-03-13T17:33:36;1.08;;;1.08;;
16266;SDS011;8241;48.786;9.250;2023-03-13T17:36:08;2.20;;;2.10;;
16266;SDS011;8241;48.786;9.250;2023-03-13T17:38:39;1.30;;;1.30;;
16266;SDS011;8241;48.786;9.250;2023-03-13T17:41:08;1.13;;;1.13;;
16266;SDS011;8241;48.786;9.250;2023-03-13T17:43:37;1.80;;;1.70;;
16266;SDS011;8241;48.786;9.250;2023-03-13T17:46:07;1.50;;;1.50;;
16266;SDS011;8241;48.786;9.250;2023-03-13T17:48:40;1.70;;;1.60;;
16266;SDS011;8241;48.786;9.250;2023-03-13T17:51:10;2.75;;;1.67;;
16266;SDS011;8241;48.786;9.250;2023-03-13T17:53:39;1.40;;;1.40;;
16266;SDS011;8241;48.786;9.250;2023-03-13T17:56:10;1.33;;;1.33;;
16266;SDS011;8241;48.786;9.250;2023-03-13T17:58:40;1.40;;;1.40;;
16266;SDS011;8241;48.786;9.250;2023-03-13T18:01:08;1.60;;;1.50;;
16266;SDS011;8241;48.786;9.250;2023-03-13T18:03:37;1.40;;;1.40;;
16266;SDS011;8241;48.786;9.250;2023-03-13T18:06:04;1.50;;;1.50;;
16266;SDS011;8241;48.786;9.250;2023-03-13T18:08:35;1.15;;;1.15;;
16266;SDS011;8241;48.786;9.250;2023-03-13T18:11:02;1.10;;;1.10;;
16266;SDS011;8241;48.786;9.250;2023-03-13T18:13:30;1.20;;;1.20;;
16266;SDS011;8241;48.786;9.250;2023-03-13T18:15:58;1.10;;;1.10;;
16266;SDS011;8241;48.786;9.250;2023-03-13T18:18:25;1.25;;;1.25;;
16266;SDS011;8241;48.786;9.250;2023-03-13T18:20:52;1.10;;;1.10;;
16266;SDS011;8241;48.786;9.250;2023-03-13T18:23:18;1.90;;;1.80;;
16266;SDS011;8241;48.786;9.250;2023-03-13T18:25:45;1.30;;;1.30;;
16266;SDS011;8241;48.786;9.250;2023-03-13T18:28:12;1.42;;;1.42;;
16266;SDS011;8241;48.786;9.250;2023-03-13T18:30:39;1.40;;;1.40;;
16266;SDS011;8241;48.786;9.250;2023-03-13T18:33:07;1.50;;;1.50;;
16266;SDS011;8241;48.786;9.250;2023-03-13T18:35:34;3.70;;;2.20;;
16266;SDS011;8241;48.786;9.250;2023-03-13T18:38:01;1.23;;;1.20;;
16266;SDS011;8241;48.786;9.250;2023-03-13T18:40:29;1.40;;;1.40;;
16266;SDS011;8241;48.786;9.250;2023-03-13T18:42:56;1.20;;;1.20;;
16266;SDS011;8241;48.786;9.250;2023-03-13T18:45:24;1.42;;;1.38;;
16266;SDS011;8241;48.786;9.250;2023-03-13T18:47:52;1.20;;;1.20;;
16266;SDS011;8241;48.786;9.250;2023-03-13T18:50:22;1.10;;;1.10;;
16266;SDS011;8241;48.786;9.250;2023-03-13T18:52:51;1.10;;;1.10;;
16266;SDS011;8241;48.786;9.250;2023-03-13T18:55:19;1.20;;;1.20;;
16266;SDS011;8241;48.786;9.250;2023-03-13T18:57:46;1.20;;;1.20;;
16266;SDS011;8241;48.786;9.250;2023-03-13T19:00:14;1.23;;;1.23;;
16266;SDS011;8241;48.786;9.250;2023-03-13T19:02:43;1.20;;;1.20;;
16266;SDS011;8241;48.786;9.250;2023-03-13T19:05:10;1.27;;;1.27;;
16266;SDS011;8241;48.786;9.250;2023-03-13T19:07:39;2.10;;;2.00;;
16266;SDS011;8241;48.786;9.250;2023-03-13T19:10:14;1.40;;;1.40;;
16266;SDS011;8241;48.786;9.250;2023-03-13T19:12:43;1.00;;;1.00;;
16266;SDS011;8241;48.786;9.250;2023-03-13T19:15:11;4.90;;;1.50;;
16266;SDS011;8241;48.786;9.250;2023-03-13T19:17:38;1.00;;;1.00;;
16266;SDS011;8241;48.786;9.250;2023-03-13T19:20:08;1.10;;;1.10;;
16266;SDS011;8241;48.786;9.250;2023-03-13T19:22:39;1.40;;;1.40;;
16266;SDS011;8241;48.786;9.250;2023-03-13T19:27:34;1.20;;;1.20;;
16266;SDS011;8241;48.786;9.250;2023-03-13T19:30:01;1.02;;;1.02;;
16266;SDS011;8241;48.786;9.250;2023-03-13T19:32:28;1.10;;;1.10;;
16266;SDS011;8241;48.786;9.250;2023-03-13T19:34:55;1.25;;;1.25;;
16266;SDS011;8241;48.786;9.250;2023-03-13T19:37:22;1.40;;;1.30;;
16266;SDS011;8241;48.786;9.250;2023-03-13T19:39:50;1.20;;;1.20;;
16266;SDS011;8241;48.786;9.250;2023-03-13T19:42:19;1.20;;;1.20;;
16266;SDS011;8241;48.786;9.250;2023-03-13T19:44:46;1.10;;;1.10;;
16266;SDS011;8241;48.786;9.250;2023-03-13T19:57:01;1.50;;;1.50;;
16266;SDS011;8241;48.786;9.250;2023-03-13T19:59:29;1.10;;;1.10;;
16266;SDS011;8241;48.786;9.250;2023-03-13T20:01:59;1.50;;;1.50;;
16266;SDS011;8241;48.786;9.250;2023-03-13T20:04:30;1.90;;;1.80;;
16266;SDS011;8241;48.786;9.250;2023-03-13T20:06:57;1.25;;;1.25;;
16266;SDS011;8241;48.786;9.250;2023-03-13T20:09:26;1.40;;;1.40;;
16266;SDS011;8241;48.786;9.250;2023-03-13T20:11:53;1.10;;;1.10;;
16266;SDS011;8241;48.786;9.250;2023-03-13T20:14:21;1.00;;;1.00;;
16266;SDS011;8241;48.786;9.250;2023-03-13T20:19:14;2.00;;;1.90;;
16266;SDS011;8241;48.786;9.250;2023-03-13T20:21:41;1.70;;;1.70;;
16266;SDS011;8241;48.786;9.250;2023-03-13T20:24:09;1.50;;;1.50;;
16266;SDS011;8241;48.786;9.250;2023-03-13T20:26:36;1.80;;;1.80;;
16266;SDS011;8241;48.786;9.250;2023-03-13T20:29:03;2.50;;;2.40;;
16266;SDS011;8241;48.786;9.250;2023-03-13T20:31:31;2.60;;;2.50;;
16266;SDS011;8241;48.786;9.250;2023-03-13T20:33:58;2.80;;;2.70;;
16266;SDS011;8241;48.786;9.250;2023-03-13T20:46:16;2.90;;;2.80;;
16266;SDS011;8241;48.786;9.250;2023-03-13T20:48:44;3.10;;;3.00;;
16266;SDS011;8241;48.786;9.250;2023-03-13T20:51:11;2.90;;;2.80;;
16266;SDS011;8241;48.786;9.250;2023-03-13T20:53:38;3.20;;;3.10;;
16266;SDS011;8241;48.786;9.250;2023-03-13T20:56:07;3.30;;;3.20;;
16266;SDS011;8241;48.786;9.250;2023-03-13T20:58:34;2.97;;;2.87;;
16266;SDS011;8241;48.786;9.250;2023-03-13T21:01:02;4.25;;;3.60;;
16266;SDS011;8241;48.786;9.250;2023-03-13T21:03:30;3.20;;;3.10;;
16266;SDS011;8241;48.786;9.250;2023-03-13T21:06:01;3.25;;;3.15;;
16266;SDS011;8241;48.786;9.250;2023-03-13T21:08:34;2.65;;;2.55;;
16266;SDS011;8241;48.786;9.250;2023-03-13T21:11:01;2.80;;;2.70;;
16266;SDS011;8241;48.786;9.250;2023-03-13T21:13:28;3.10;;;3.00;;
16266;SDS011;8241;48.786;9.250;2023-03-13T21:25:51;2.63;;;2.53;;
16266;SDS011;8241;48.786;9.250;2023-03-13T21:28:19;3.40;;;3.10;;
16266;SDS011;8241;48.786;9.250;2023-03-13T21:30:46;2.60;;;2.50;;
16266;SDS011;8241;48.786;9.250;2023-03-13T21:33:13;3.17;;;3.08;;
16266;SDS011;8241;48.786;9.250;2023-03-13T21:35:39;2.60;;;2.50;;
16266;SDS011;8241;48.786;9.250;2023-03-13T21:38:06;2.57;;;2.47;;
16266;SDS011;8241;48.786;9.250;2023-03-13T21:40:35;3.10;;;3.00;;
16266;SDS011;8241;48.786;9.250;2023-03-13T21:57:45;0.50;;;0.50;;
16266;SDS011;8241;48.786;9.250;2023-03-13T22:00:12;0.40;;;0.40;;
16266;SDS011;8241;48.786;9.250;2023-03-13T22:02:40;0.70;;;0.70;;
16266;SDS011;8241;48.786;9.250;2023-03-13T22:05:07;0.47;;;0.47;;
16266;SDS011;8241;48.786;9.250;2023-03-13T22:07:34;0.40;;;0.40;;
16266;SDS011;8241;48.786;9.250;2023-03-13T22:10:02;0.45;;;0.45;;
16266;SDS011;8241;48.786;9.250;2023-03-13T22:12:29;0.40;;;0.40;;
16266;SDS011;8241;48.786;9.250;2023-03-13T22:14:58;0.40;;;0.40;;
16266;SDS011;8241;48.786;9.250;2023-03-13T22:17:25;0.40;;;0.40;;
16266;SDS011;8241;48.786;9.250;2023-03-13T22:19:52;0.52;;;0.52;;
16266;SDS011;8241;48.786;9.250;2023-03-13T22:22:18;0.40;;;0.40;;
16266;SDS011;8241;48.786;9.250;2023-03-13T22:24:46;0.40;;;0.40;;
16266;SDS011;8241;48.786;9.250;2023-03-13T22:27:13;0.30;;;0.30;;
